sensor_id;sensor_type;location;lat;lon;timestamp;temperature;humidity
8888;DHT22;4480;52.370;9.748;2023-02-07T00:00:43;-1.20;99.90
8888;DHT22;4480;52.370;9.748;2023-02-07T00:03:10;-1.20;99.90
8888;DHT22;4480;52.370;9.748;2023-02-07T00:05:38;-1.20;99.90
8888;DHT22;4480;52.370;9.748;2023-02-07T00:08:06;-1.20;99.90
8888;DHT22;4480;52.370;9.748;2023-02-07T00:10:34;-1.30;99.90
8888;DHT22;4480;52.370;9.748;2023-02-07T00:13:01;-1.30;99.90
8888;DHT22;4480;52.370;9.748;2023-02-07T00:15:27;-1.30;99.90
8888;DHT22;4480;52.370;9.748;2023-02-07T00:17:54;-1.30;99.90
8888;DHT22;4480;52.370;9.748;2023-02-07T00:20:21;-1.30;99.90
8888;DHT22;4480;52.370;9.748;2023-02-07T00:22:49;-1.30;99.90
8888;DHT22;4480;52.370;9.748;2023-02-07T00:25:18;-1.40;99.90
8888;DHT22;4480;52.370;9.748;2023-02-07T00:27:44;-1.40;99.90
8888;DHT22;4480;52.370;9.748;2023-02-07T00:30:12;-1.40;99.90
8888;DHT22;4480;52.370;9.748;2023-02-07T00:32:39;-1.40;99.90
8888;DHT22;4480;52.370;9.748;2023-02-07T00:35:06;-1.40;99.90
8888;DHT22;4480;52.370;9.748;2023-02-07T00:37:33;-1.40;99.90
8888;DHT22;4480;52.370;9.748;2023-02-07T00:40:00;-1.50;99.90
8888;DHT22;4480;52.370;9.748;2023-02-07T00:42:28;-1.50;99.90
8888;DHT22;4480;52.370;9.748;2023-02-07T00:44:55;-1.50;99.90
8888;DHT22;4480;52.370;9.748;2023-02-07T00:47:22;-1.50;99.90
8888;DHT22;4480;52.370;9.748;2023-02-07T00:49:48;-1.50;99.90
8888;DHT22;4480;52.370;9.748;2023-02-07T00:52:15;-1.50;99.90
8888;DHT22;4480;52.370;9.748;2023-02-07T00:54:42;-1.60;99.90
8888;DHT22;4480;52.370;9.748;2023-02-07T00:57:09;-1.60;99.90
8888;DHT22;4480;52.370;9.748;2023-02-07T00:59:37;-1.60;99.90
8888;DHT22;4480;52.370;9.748;2023-02-07T01:02:04;-1.60;99.90
8888;DHT22;4480;52.370;9.748;2023-02-07T01:04:30;-1.60;99.90
8888;DHT22;4480;52.370;9.748;2023-02-07T01:06:57;-1.60;99.90
8888;DHT22;4480;52.370;9.748;2023-02-07T01:09:24;-1.60;99.90
8888;DHT22;4480;52.370;9.748;2023-02-07T01:11:51;-1.60;99.90
8888;DHT22;4480;52.370;9.748;2023-02-07T01:14:17;-1.60;99.90
8888;DHT22;4480;52.370;9.748;2023-02-07T01:16:46;-1.70;99.90
8888;DHT22;4480;52.370;9.748;2023-02-07T01:19:12;-1.60;99.90
8888;DHT22;4480;52.370;9.748;2023-02-07T01:21:40;-1.70;99.90
8888;DHT22;4480;52.370;9.748;2023-02-07T01:24:07;-1.70;99.90
8888;DHT22;4480;52.370;9.748;2023-02-07T01:26:35;-1.70;99.90
8888;DHT22;4480;52.370;9.748;2023-02-07T01:29:02;-1.70;99.90
8888;DHT22;4480;52.370;9.748;2023-02-07T01:31:29;-1.70;99.90
8888;DHT22;4480;52.370;9.748;2023-02-07T01:33:58;-1.70;99.90
8888;DHT22;4480;52.370;9.748;2023-02-07T01:36:26;-1.70;99.90
8888;DHT22;4480;52.370;9.748;2023-02-07T01:38:54;-1.70;99.90
8888;DHT22;4480;52.370;9.748;2023-02-07T01:41:22;-1.80;99.90
8888;DHT22;4480;52.370;9.748;2023-02-07T01:43:54;-1.80;99.90
8888;DHT22;4480;52.370;9.748;2023-02-07T01:46:22;-1.80;99.90
8888;DHT22;4480;52.370;9.748;2023-02-07T01:48:49;-1.80;99.90
8888;DHT22;4480;52.370;9.748;2023-02-07T01:51:18;-1.80;99.90
8888;DHT22;4480;52.370;9.748;2023-02-07T01:53:45;-1.80;99.90
8888;DHT22;4480;52.370;9.748;2023-02-07T01:56:14;-1.80;99.90
8888;DHT22;4480;52.370;9.748;2023-02-07T01:58:42;-1.80;99.90
8888;DHT22;4480;52.370;9.748;2023-02-07T02:01:12;-1.80;99.90
8888;DHT22;4480;52.370;9.748;2023-02-07T02:03:43;-1.80;99.90
8888;DHT22;4480;52.370;9.748;2023-02-07T02:06:12;-1.80;99.90
8888;DHT22;4480;52.370;9.748;2023-02-07T02:08:41;-1.80;99.90
8888;DHT22;4480;52.370;9.748;2023-02-07T02:11:23;-1.80;99.90
8888;DHT22;4480;52.370;9.748;2023-02-07T02:14:07;-1.90;99.90
8888;DHT22;4480;52.370;9.748;2023-02-07T02:16:41;-1.80;99.90
8888;DHT22;4480;52.370;9.748;2023-02-07T02:19:33;-1.80;99.90
8888;DHT22;4480;52.370;9.748;2023-02-07T02:22:29;-1.80;99.90
8888;DHT22;4480;52.370;9.748;2023-02-07T02:25:24;-1.90;99.90
8888;DHT22;4480;52.370;9.748;2023-02-07T02:28:18;-1.90;99.90
8888;DHT22;4480;52.370;9.748;2023-02-07T02:31:20;-1.90;99.90
8888;DHT22;4480;52.370;9.748;2023-02-07T02:33:54;-1.90;99.90
8888;DHT22;4480;52.370;9.748;2023-02-07T02:36:27;-1.90;99.90
8888;DHT22;4480;52.370;9.748;2023-02-07T02:39:05;-2.00;99.90
8888;DHT22;4480;52.370;9.748;2023-02-07T02:41:38;-2.00;99.90
8888;DHT22;4480;52.370;9.748;2023-02-07T02:44:10;-2.00;99.90
8888;DHT22;4480;52.370;9.748;2023-02-07T02:46:39;-2.00;99.90
8888;DHT22;4480;52.370;9.748;2023-02-07T02:49:11;-2.00;99.90
8888;DHT22;4480;52.370;9.748;2023-02-07T02:51:39;-2.10;99.90
8888;DHT22;4480;52.370;9.748;2023-02-07T02:54:25;-2.10;99.90
8888;DHT22;4480;52.370;9.748;2023-02-07T02:57:00;-2.10;99.90
8888;DHT22;4480;52.370;9.748;2023-02-07T02:59:44;-2.10;99.90
8888;DHT22;4480;52.370;9.748;2023-02-07T03:02:22;-2.10;99.90
8888;DHT22;4480;52.370;9.748;2023-02-07T03:05:09;-2.10;99.90
8888;DHT22;4480;52.370;9.748;2023-02-07T03:07:43;-2.20;99.90
8888;DHT22;4480;52.370;9.748;2023-02-07T03:10:22;-2.20;99.90
8888;DHT22;4480;52.370;9.748;2023-02-07T03:12:54;-2.20;99.90
8888;DHT22;4480;52.370;9.748;2023-02-07T03:15:33;-2.30;99.90
8888;DHT22;4480;52.370;9.748;2023-02-07T03:18:06;-2.30;99.90
8888;DHT22;4480;52.370;9.748;2023-02-07T03:20:41;-2.30;99.90
8888;DHT22;4480;52.370;9.748;2023-02-07T03:23:10;-2.30;99.90
8888;DHT22;4480;52.370;9.748;2023-02-07T03:25:39;-2.30;99.90
8888;DHT22;4480;52.370;9.748;2023-02-07T03:28:07;-2.30;99.90
8888;DHT22;4480;52.370;9.748;2023-02-07T03:30:37;-2.30;99.90
8888;DHT22;4480;52.370;9.748;2023-02-07T03:33:06;-2.30;99.90
8888;DHT22;4480;52.370;9.748;2023-02-07T03:35:39;-2.40;99.90
8888;DHT22;4480;52.370;9.748;2023-02-07T03:38:07;-2.40;99.90
8888;DHT22;4480;52.370;9.748;2023-02-07T03:40:39;-2.50;99.90
8888;DHT22;4480;52.370;9.748;2023-02-07T03:43:10;-2.50;99.90
8888;DHT22;4480;52.370;9.748;2023-02-07T03:45:39;-2.50;99.90
8888;DHT22;4480;52.370;9.748;2023-02-07T03:48:06;-2.50;99.90
8888;DHT22;4480;52.370;9.748;2023-02-07T03:50:33;-2.50;99.90
8888;DHT22;4480;52.370;9.748;2023-02-07T03:53:01;-2.50;99.90
8888;DHT22;4480;52.370;9.748;2023-02-07T03:55:28;-2.50;99.90
8888;DHT22;4480;52.370;9.748;2023-02-07T03:57:55;-2.50;99.90
8888;DHT22;4480;52.370;9.748;2023-02-07T04:00:21;-2.50;99.90
8888;DHT22;4480;52.370;9.748;2023-02-07T04:02:48;-2.50;99.90
8888;DHT22;4480;52.370;9.748;2023-02-07T04:05:15;-2.50;99.90
8888;DHT22;4480;52.370;9.748;2023-02-07T04:11:07;-2.50;99.90
8888;DHT22;4480;52.370;9.748;2023-02-07T04:13:33;-2.50;99.90
8888;DHT22;4480;52.370;9.748;2023-02-07T04:16:00;-2.50;99.90
8888;DHT22;4480;52.370;9.748;2023-02-07T04:18:27;-2.50;99.90
8888;DHT22;4480;52.370;9.748;2023-02-07T04:20:59;-2.50;99.90
8888;DHT22;4480;52.370;9.748;2023-02-07T04:23:26;-2.60;99.90
8888;DHT22;4480;52.370;9.748;2023-02-07T04:25:53;-2.60;99.90
8888;DHT22;4480;52.370;9.748;2023-02-07T04:28:21;-2.60;99.90
8888;DHT22;4480;52.370;9.748;2023-02-07T04:30:48;-2.70;99.90
8888;DHT22;4480;52.370;9.748;2023-02-07T04:33:15;-2.70;99.90
8888;DHT22;4480;52.370;9.748;2023-02-07T04:35:42;-2.70;99.90
8888;DHT22;4480;52.370;9.748;2023-02-07T04:38:09;-2.70;99.90
8888;DHT22;4480;52.370;9.748;2023-02-07T04:40:37;-2.70;99.90
8888;DHT22;4480;52.370;9.748;2023-02-07T04:43:04;-2.70;99.90
8888;DHT22;4480;52.370;9.748;2023-02-07T04:45:32;-2.70;99.90
8888;DHT22;4480;52.370;9.748;2023-02-07T04:47:59;-2.70;99.90
8888;DHT22;4480;52.370;9.748;2023-02-07T04:50:26;-2.70;99.90
8888;DHT22;4480;52.370;9.748;2023-02-07T04:52:52;-2.70;99.90
8888;DHT22;4480;52.370;9.748;2023-02-07T04:55:19;-2.70;99.90
8888;DHT22;4480;52.370;9.748;2023-02-07T04:57:47;-2.70;99.90
8888;DHT22;4480;52.370;9.748;2023-02-07T05:00:14;-2.70;99.90
8888;DHT22;4480;52.370;9.748;2023-02-07T05:02:43;-2.70;99.90
8888;DHT22;4480;52.370;9.748;2023-02-07T05:05:10;-2.70;99.90
8888;DHT22;4480;52.370;9.748;2023-02-07T05:07:37;-2.70;99.90
8888;DHT22;4480;52.370;9.748;2023-02-07T05:10:04;-2.70;99.90
8888;DHT22;4480;52.370;9.748;2023-02-07T05:12:31;-2.70;99.90
8888;DHT22;4480;52.370;9.748;2023-02-07T05:14:58;-2.70;99.90
8888;DHT22;4480;52.370;9.748;2023-02-07T05:17:25;-2.70;99.90
8888;DHT22;4480;52.370;9.748;2023-02-07T05:19:53;-2.70;99.90
8888;DHT22;4480;52.370;9.748;2023-02-07T05:22:19;-2.70;99.90
8888;DHT22;4480;52.370;9.748;2023-02-07T05:24:46;-2.80;99.90
8888;DHT22;4480;52.370;9.748;2023-02-07T05:27:13;-2.80;99.90
8888;DHT22;4480;52.370;9.748;2023-02-07T05:29:40;-2.80;99.90
8888;DHT22;4480;52.370;9.748;2023-02-07T05:32:08;-2.80;99.90
8888;DHT22;4480;52.370;9.748;2023-02-07T05:34:55;-2.80;99.90
8888;DHT22;4480;52.370;9.748;2023-02-07T05:37:22;-2.80;99.90
8888;DHT22;4480;52.370;9.748;2023-02-07T05:39:49;-2.90;99.90
8888;DHT22;4480;52.370;9.748;2023-02-07T05:42:16;-2.80;99.90
8888;DHT22;4480;52.370;9.748;2023-02-07T05:44:42;-2.80;99.90
8888;DHT22;4480;52.370;9.748;2023-02-07T05:47:10;-2.80;99.90
8888;DHT22;4480;52.370;9.748;2023-02-07T05:49:36;-2.80;99.90
8888;DHT22;4480;52.370;9.748;2023-02-07T05:52:05;-2.80;99.90
8888;DHT22;4480;52.370;9.748;2023-02-07T05:54:32;-2.80;99.90
8888;DHT22;4480;52.370;9.748;2023-02-07T05:56:59;-2.90;99.90
8888;DHT22;4480;52.370;9.748;2023-02-07T05:59:25;-2.90;99.90
8888;DHT22;4480;52.370;9.748;2023-02-07T06:01:52;-2.90;99.90
8888;DHT22;4480;52.370;9.748;2023-02-07T06:04:19;-2.90;99.90
8888;DHT22;4480;52.370;9.748;2023-02-07T06:06:46;-2.90;99.90
8888;DHT22;4480;52.370;9.748;2023-02-07T06:09:14;-2.90;99.90
8888;DHT22;4480;52.370;9.748;2023-02-07T06:11:41;-2.90;99.90
8888;DHT22;4480;52.370;9.748;2023-02-07T06:14:08;-2.90;99.90
8888;DHT22;4480;52.370;9.748;2023-02-07T06:16:35;-2.90;99.90
8888;DHT22;4480;52.370;9.748;2023-02-07T06:19:02;-2.90;99.90
8888;DHT22;4480;52.370;9.748;2023-02-07T06:21:29;-2.90;99.90
8888;DHT22;4480;52.370;9.748;2023-02-07T06:23:55;-2.90;99.90
8888;DHT22;4480;52.370;9.748;2023-02-07T06:26:24;-2.90;99.90
8888;DHT22;4480;52.370;9.748;2023-02-07T06:28:50;-2.90;99.90
8888;DHT22;4480;52.370;9.748;2023-02-07T06:31:17;-2.90;99.90
8888;DHT22;4480;52.370;9.748;2023-02-07T06:33:44;-2.90;99.90
8888;DHT22;4480;52.370;9.748;2023-02-07T06:36:11;-2.90;99.90
8888;DHT22;4480;52.370;9.748;2023-02-07T06:38:38;-2.90;99.90
8888;DHT22;4480;52.370;9.748;2023-02-07T06:41:05;-2.80;99.90
8888;DHT22;4480;52.370;9.748;2023-02-07T06:43:36;-2.90;99.90
8888;DHT22;4480;52.370;9.748;2023-02-07T06:46:03;-2.80;99.90
8888;DHT22;4480;52.370;9.748;2023-02-07T06:48:30;-2.80;99.90
8888;DHT22;4480;52.370;9.748;2023-02-07T06:50:57;-2.90;99.90
8888;DHT22;4480;52.370;9.748;2023-02-07T06:53:24;-2.90;99.90
8888;DHT22;4480;52.370;9.748;2023-02-07T06:55:52;-2.90;99.90
8888;DHT22;4480;52.370;9.748;2023-02-07T06:58:19;-2.80;99.90
8888;DHT22;4480;52.370;9.748;2023-02-07T07:00:47;-2.80;99.90
8888;DHT22;4480;52.370;9.748;2023-02-07T07:03:15;-2.80;99.90
8888;DHT22;4480;52.370;9.748;2023-02-07T07:05:43;-2.80;99.90
8888;DHT22;4480;52.370;9.748;2023-02-07T07:08:11;-2.80;99.90
8888;DHT22;4480;52.370;9.748;2023-02-07T07:10:39;-2.70;99.90
8888;DHT22;4480;52.370;9.748;2023-02-07T07:13:06;-2.70;99.90
8888;DHT22;4480;52.370;9.748;2023-02-07T07:15:33;-2.70;99.90
8888;DHT22;4480;52.370;9.748;2023-02-07T07:18:01;-2.70;99.90
8888;DHT22;4480;52.370;9.748;2023-02-07T07:20:28;-2.60;99.90
8888;DHT22;4480;52.370;9.748;2023-02-07T07:22:55;-2.60;99.90
8888;DHT22;4480;52.370;9.748;2023-02-07T07:25:22;-2.60;99.90
8888;DHT22;4480;52.370;9.748;2023-02-07T07:27:50;-2.50;99.90
8888;DHT22;4480;52.370;9.748;2023-02-07T07:30:17;-2.50;99.90
8888;DHT22;4480;52.370;9.748;2023-02-07T07:32:44;-2.40;99.90
8888;DHT22;4480;52.370;9.748;2023-02-07T07:35:12;-2.40;99.90
8888;DHT22;4480;52.370;9.748;2023-02-07T07:37:39;-2.30;99.90
8888;DHT22;4480;52.370;9.748;2023-02-07T07:40:07;-2.10;99.90
8888;DHT22;4480;52.370;9.748;2023-02-07T07:42:34;-2.00;99.90
8888;DHT22;4480;52.370;9.748;2023-02-07T07:45:01;-1.90;99.90
8888;DHT22;4480;52.370;9.748;2023-02-07T07:47:28;-1.60;99.90
8888;DHT22;4480;52.370;9.748;2023-02-07T07:49:55;-1.10;99.90
8888;DHT22;4480;52.370;9.748;2023-02-07T07:52:23;-0.80;99.90
8888;DHT22;4480;52.370;9.748;2023-02-07T07:54:50;-0.50;99.90
8888;DHT22;4480;52.370;9.748;2023-02-07T07:57:17;-0.40;99.90
8888;DHT22;4480;52.370;9.748;2023-02-07T07:59:43;-0.40;99.90
8888;DHT22;4480;52.370;9.748;2023-02-07T08:02:11;-0.50;99.90
8888;DHT22;4480;52.370;9.748;2023-02-07T08:04:38;-0.50;99.90
8888;DHT22;4480;52.370;9.748;2023-02-07T08:07:05;-0.50;99.90
8888;DHT22;4480;52.370;9.748;2023-02-07T08:09:33;-0.50;99.90
8888;DHT22;4480;52.370;9.748;2023-02-07T08:12:00;-0.50;99.90
8888;DHT22;4480;52.370;9.748;2023-02-07T08:14:26;-0.50;99.90
8888;DHT22;4480;52.370;9.748;2023-02-07T08:16:53;-0.60;99.90
8888;DHT22;4480;52.370;9.748;2023-02-07T08:19:20;-0.60;99.90
8888;DHT22;4480;52.370;9.748;2023-02-07T08:21:47;-0.60;99.90
8888;DHT22;4480;52.370;9.748;2023-02-07T08:24:14;-0.60;99.90
8888;DHT22;4480;52.370;9.748;2023-02-07T08:26:42;-0.50;99.90
8888;DHT22;4480;52.370;9.748;2023-02-07T08:29:10;-0.40;99.90
8888;DHT22;4480;52.370;9.748;2023-02-07T08:31:37;-0.30;99.90
8888;DHT22;4480;52.370;9.748;2023-02-07T08:34:04;-0.20;99.90
8888;DHT22;4480;52.370;9.748;2023-02-07T08:36:31;0.00;99.90
8888;DHT22;4480;52.370;9.748;2023-02-07T08:38:58;0.10;99.90
8888;DHT22;4480;52.370;9.748;2023-02-07T08:41:25;0.20;99.90
8888;DHT22;4480;52.370;9.748;2023-02-07T08:43:53;0.30;99.90
8888;DHT22;4480;52.370;9.748;2023-02-07T08:46:20;0.40;99.90
8888;DHT22;4480;52.370;9.748;2023-02-07T08:48:46;0.40;99.90
8888;DHT22;4480;52.370;9.748;2023-02-07T08:51:13;0.40;99.90
8888;DHT22;4480;52.370;9.748;2023-02-07T08:53:40;0.40;99.90
8888;DHT22;4480;52.370;9.748;2023-02-07T08:56:07;0.40;99.90
8888;DHT22;4480;52.370;9.748;2023-02-07T08:58:34;0.40;99.90
8888;DHT22;4480;52.370;9.748;2023-02-07T09:01:02;0.50;99.90
8888;DHT22;4480;52.370;9.748;2023-02-07T09:03:29;0.50;99.90
8888;DHT22;4480;52.370;9.748;2023-02-07T09:05:57;0.50;99.90
8888;DHT22;4480;52.370;9.748;2023-02-07T09:08:24;0.50;99.90
8888;DHT22;4480;52.370;9.748;2023-02-07T09:10:51;0.50;99.90
8888;DHT22;4480;52.370;9.748;2023-02-07T09:13:18;0.50;99.90
8888;DHT22;4480;52.370;9.748;2023-02-07T09:15:45;0.50;99.90
8888;DHT22;4480;52.370;9.748;2023-02-07T09:18:13;0.60;99.90
8888;DHT22;4480;52.370;9.748;2023-02-07T09:20:40;0.60;99.90
8888;DHT22;4480;52.370;9.748;2023-02-07T09:23:07;0.70;99.90
8888;DHT22;4480;52.370;9.748;2023-02-07T09:25:46;0.70;99.90
8888;DHT22;4480;52.370;9.748;2023-02-07T09:28:13;0.80;99.90
8888;DHT22;4480;52.370;9.748;2023-02-07T09:30:40;0.90;99.90
8888;DHT22;4480;52.370;9.748;2023-02-07T09:33:08;1.00;99.90
8888;DHT22;4480;52.370;9.748;2023-02-07T09:35:37;1.10;99.90
8888;DHT22;4480;52.370;9.748;2023-02-07T09:38:12;1.20;99.90
8888;DHT22;4480;52.370;9.748;2023-02-07T09:40:40;1.30;99.90
8888;DHT22;4480;52.370;9.748;2023-02-07T09:43:13;1.30;99.90
8888;DHT22;4480;52.370;9.748;2023-02-07T09:45:44;1.40;99.90
8888;DHT22;4480;52.370;9.748;2023-02-07T09:48:16;1.50;99.90
8888;DHT22;4480;52.370;9.748;2023-02-07T09:50:49;1.60;99.90
8888;DHT22;4480;52.370;9.748;2023-02-07T09:53:21;1.60;99.90
8888;DHT22;4480;52.370;9.748;2023-02-07T09:55:50;1.70;99.90
8888;DHT22;4480;52.370;9.748;2023-02-07T09:58:22;1.70;99.90
8888;DHT22;4480;52.370;9.748;2023-02-07T10:00:59;1.70;99.90
8888;DHT22;4480;52.370;9.748;2023-02-07T10:03:28;1.80;99.90
8888;DHT22;4480;52.370;9.748;2023-02-07T10:05:59;1.80;99.80
8888;DHT22;4480;52.370;9.748;2023-02-07T10:08:27;1.90;99.70
8888;DHT22;4480;52.370;9.748;2023-02-07T10:11:07;2.00;99.50
8888;DHT22;4480;52.370;9.748;2023-02-07T10:14:00;2.10;99.10
8888;DHT22;4480;52.370;9.748;2023-02-07T10:16:42;2.20;98.10
8888;DHT22;4480;52.370;9.748;2023-02-07T10:19:20;2.30;97.20
8888;DHT22;4480;52.370;9.748;2023-02-07T10:21:57;2.40;96.70
8888;DHT22;4480;52.370;9.748;2023-02-07T10:27:09;2.50;96.30
8888;DHT22;4480;52.370;9.748;2023-02-07T10:29:47;2.50;96.40
8888;DHT22;4480;52.370;9.748;2023-02-07T10:32:20;2.60;95.70
8888;DHT22;4480;52.370;9.748;2023-02-07T10:34:51;2.60;94.80
8888;DHT22;4480;52.370;9.748;2023-02-07T10:37:23;2.80;94.40
8888;DHT22;4480;52.370;9.748;2023-02-07T10:39:56;2.80;93.00
8888;DHT22;4480;52.370;9.748;2023-02-07T10:42:24;2.80;91.70
8888;DHT22;4480;52.370;9.748;2023-02-07T10:44:52;2.90;91.90
8888;DHT22;4480;52.370;9.748;2023-02-07T10:47:19;3.00;91.20
8888;DHT22;4480;52.370;9.748;2023-02-07T10:49:50;3.10;90.60
8888;DHT22;4480;52.370;9.748;2023-02-07T10:52:27;3.10;89.20
8888;DHT22;4480;52.370;9.748;2023-02-07T10:54:56;3.00;86.00
8888;DHT22;4480;52.370;9.748;2023-02-07T10:57:24;3.00;87.70
8888;DHT22;4480;52.370;9.748;2023-02-07T10:59:57;3.10;87.90
8888;DHT22;4480;52.370;9.748;2023-02-07T11:02:36;3.10;86.50
8888;DHT22;4480;52.370;9.748;2023-02-07T11:05:05;3.20;85.10
8888;DHT22;4480;52.370;9.748;2023-02-07T11:07:57;3.20;82.70
8888;DHT22;4480;52.370;9.748;2023-02-07T11:10:26;3.30;82.70
8888;DHT22;4480;52.370;9.748;2023-02-07T11:12:58;3.40;82.70
8888;DHT22;4480;52.370;9.748;2023-02-07T11:15:31;3.50;81.60
8888;DHT22;4480;52.370;9.748;2023-02-07T11:18:00;3.60;80.50
8888;DHT22;4480;52.370;9.748;2023-02-07T11:20:29;3.60;77.30
8888;DHT22;4480;52.370;9.748;2023-02-07T11:22:59;3.70;75.60
8888;DHT22;4480;52.370;9.748;2023-02-07T11:25:31;3.80;76.10
8888;DHT22;4480;52.370;9.748;2023-02-07T11:28:01;3.80;75.10
8888;DHT22;4480;52.370;9.748;2023-02-07T11:30:29;3.90;72.80
8888;DHT22;4480;52.370;9.748;2023-02-07T11:33:01;3.90;71.10
8888;DHT22;4480;52.370;9.748;2023-02-07T11:35:29;3.80;69.40
8888;DHT22;4480;52.370;9.748;2023-02-07T11:38:02;3.80;68.40
8888;DHT22;4480;52.370;9.748;2023-02-07T11:40:31;3.80;67.70
8888;DHT22;4480;52.370;9.748;2023-02-07T11:43:05;3.90;67.80
8888;DHT22;4480;52.370;9.748;2023-02-07T11:45:38;4.00;68.20
8888;DHT22;4480;52.370;9.748;2023-02-07T11:48:06;4.00;66.90
8888;DHT22;4480;52.370;9.748;2023-02-07T11:50:35;4.10;65.90
8888;DHT22;4480;52.370;9.748;2023-02-07T11:53:05;4.10;63.60
8888;DHT22;4480;52.370;9.748;2023-02-07T11:55:34;4.20;62.10
8888;DHT22;4480;52.370;9.748;2023-02-07T11:58:07;4.20;61.70
8888;DHT22;4480;52.370;9.748;2023-02-07T12:00:36;4.20;61.10
8888;DHT22;4480;52.370;9.748;2023-02-07T12:03:05;4.30;62.00
8888;DHT22;4480;52.370;9.748;2023-02-07T12:05:37;4.30;62.20
8888;DHT22;4480;52.370;9.748;2023-02-07T12:08:11;4.30;60.50
8888;DHT22;4480;52.370;9.748;2023-02-07T12:10:40;4.30;60.90
8888;DHT22;4480;52.370;9.748;2023-02-07T12:13:13;4.40;60.50
8888;DHT22;4480;52.370;9.748;2023-02-07T12:15:44;4.40;60.20
8888;DHT22;4480;52.370;9.748;2023-02-07T12:18:18;4.50;59.20
8888;DHT22;4480;52.370;9.748;2023-02-07T12:20:51;4.40;58.70
8888;DHT22;4480;52.370;9.748;2023-02-07T12:23:29;4.40;58.40
8888;DHT22;4480;52.370;9.748;2023-02-07T12:26:04;4.40;58.70
8888;DHT22;4480;52.370;9.748;2023-02-07T12:28:36;4.40;58.90
8888;DHT22;4480;52.370;9.748;2023-02-07T12:31:14;4.40;58.80
8888;DHT22;4480;52.370;9.748;2023-02-07T12:33:48;4.40;58.40
8888;DHT22;4480;52.370;9.748;2023-02-07T12:36:22;4.40;57.90
8888;DHT22;4480;52.370;9.748;2023-02-07T12:38:56;4.40;58.20
8888;DHT22;4480;52.370;9.748;2023-02-07T12:41:29;4.50;58.80
8888;DHT22;4480;52.370;9.748;2023-02-07T12:44:04;4.50;58.60
8888;DHT22;4480;52.370;9.748;2023-02-07T12:46:41;4.60;57.20
8888;DHT22;4480;52.370;9.748;2023-02-07T12:49:35;4.60;56.40
8888;DHT22;4480;52.370;9.748;2023-02-07T12:52:19;4.70;56.60
8888;DHT22;4480;52.370;9.748;2023-02-07T12:55:00;4.70;56.50
8888;DHT22;4480;52.370;9.748;2023-02-07T12:57:33;4.80;56.20
8888;DHT22;4480;52.370;9.748;2023-02-07T13:00:04;4.80;56.10
8888;DHT22;4480;52.370;9.748;2023-02-07T13:02:39;4.80;54.30
8888;DHT22;4480;52.370;9.748;2023-02-07T13:05:37;4.70;54.40
8888;DHT22;4480;52.370;9.748;2023-02-07T13:08:13;4.70;54.40
8888;DHT22;4480;52.370;9.748;2023-02-07T13:10:50;4.70;54.50
8888;DHT22;4480;52.370;9.748;2023-02-07T13:13:22;4.80;54.80
8888;DHT22;4480;52.370;9.748;2023-02-07T13:15:55;4.70;53.20
8888;DHT22;4480;52.370;9.748;2023-02-07T13:18:30;4.70;50.90
8888;DHT22;4480;52.370;9.748;2023-02-07T13:21:06;4.70;50.10
8888;DHT22;4480;52.370;9.748;2023-02-07T13:23:37;4.70;49.50
8888;DHT22;4480;52.370;9.748;2023-02-07T13:26:11;4.70;50.90
8888;DHT22;4480;52.370;9.748;2023-02-07T13:28:42;4.80;52.10
8888;DHT22;4480;52.370;9.748;2023-02-07T13:31:14;4.80;53.20
8888;DHT22;4480;52.370;9.748;2023-02-07T13:33:42;4.80;53.20
8888;DHT22;4480;52.370;9.748;2023-02-07T13:36:16;4.80;52.70
8888;DHT22;4480;52.370;9.748;2023-02-07T13:38:56;4.80;53.90
8888;DHT22;4480;52.370;9.748;2023-02-07T13:41:31;4.90;55.10
8888;DHT22;4480;52.370;9.748;2023-02-07T13:44:04;4.90;53.40
8888;DHT22;4480;52.370;9.748;2023-02-07T13:47:01;4.80;51.20
8888;DHT22;4480;52.370;9.748;2023-02-07T13:49:39;4.80;50.20
8888;DHT22;4480;52.370;9.748;2023-02-07T13:52:11;4.70;50.40
8888;DHT22;4480;52.370;9.748;2023-02-07T13:54:42;4.70;51.80
8888;DHT22;4480;52.370;9.748;2023-02-07T13:57:39;4.70;53.60
8888;DHT22;4480;52.370;9.748;2023-02-07T14:00:25;4.70;55.20
8888;DHT22;4480;52.370;9.748;2023-02-07T14:02:54;4.50;56.00
8888;DHT22;4480;52.370;9.748;2023-02-07T14:05:24;4.40;56.50
8888;DHT22;4480;52.370;9.748;2023-02-07T14:07:56;4.30;57.70
8888;DHT22;4480;52.370;9.748;2023-02-07T14:10:50;4.30;58.60
8888;DHT22;4480;52.370;9.748;2023-02-07T14:13:39;4.30;60.30
8888;DHT22;4480;52.370;9.748;2023-02-07T14:16:09;4.30;61.60
8888;DHT22;4480;52.370;9.748;2023-02-07T14:18:45;4.40;61.40
8888;DHT22;4480;52.370;9.748;2023-02-07T14:21:38;4.30;60.70
8888;DHT22;4480;52.370;9.748;2023-02-07T14:24:20;4.30;61.20
8888;DHT22;4480;52.370;9.748;2023-02-07T14:27:01;4.30;61.00
8888;DHT22;4480;52.370;9.748;2023-02-07T14:30:12;4.20;60.80
8888;DHT22;4480;52.370;9.748;2023-02-07T14:32:45;4.20;61.20
8888;DHT22;4480;52.370;9.748;2023-02-07T14:35:34;4.10;61.80
8888;DHT22;4480;52.370;9.748;2023-02-07T14:38:21;4.10;62.30
8888;DHT22;4480;52.370;9.748;2023-02-07T14:40:53;4.10;61.80
8888;DHT22;4480;52.370;9.748;2023-02-07T14:43:32;4.10;61.50
8888;DHT22;4480;52.370;9.748;2023-02-07T14:46:08;4.10;61.80
8888;DHT22;4480;52.370;9.748;2023-02-07T14:48:43;4.00;62.00
8888;DHT22;4480;52.370;9.748;2023-02-07T14:51:13;4.00;62.20
8888;DHT22;4480;52.370;9.748;2023-02-07T14:53:41;4.00;62.90
8888;DHT22;4480;52.370;9.748;2023-02-07T14:56:22;4.00;63.00
8888;DHT22;4480;52.370;9.748;2023-02-07T14:58:53;4.00;63.50
8888;DHT22;4480;52.370;9.748;2023-02-07T15:01:23;4.00;63.00
8888;DHT22;4480;52.370;9.748;2023-02-07T15:04:00;3.90;62.80
8888;DHT22;4480;52.370;9.748;2023-02-07T15:06:35;3.90;62.80
8888;DHT22;4480;52.370;9.748;2023-02-07T15:09:03;3.80;62.70
8888;DHT22;4480;52.370;9.748;2023-02-07T15:11:30;3.80;63.60
8888;DHT22;4480;52.370;9.748;2023-02-07T15:13:59;3.80;64.10
8888;DHT22;4480;52.370;9.748;2023-02-07T15:16:30;3.70;63.80
8888;DHT22;4480;52.370;9.748;2023-02-07T15:19:00;3.70;63.60
8888;DHT22;4480;52.370;9.748;2023-02-07T15:21:31;3.60;64.00
8888;DHT22;4480;52.370;9.748;2023-02-07T15:24:02;3.60;64.10
8888;DHT22;4480;52.370;9.748;2023-02-07T15:26:30;3.50;64.30
8888;DHT22;4480;52.370;9.748;2023-02-07T15:28:59;3.50;64.80
8888;DHT22;4480;52.370;9.748;2023-02-07T15:31:28;3.40;65.40
8888;DHT22;4480;52.370;9.748;2023-02-07T15:33:58;3.40;65.80
8888;DHT22;4480;52.370;9.748;2023-02-07T15:36:28;3.30;66.50
8888;DHT22;4480;52.370;9.748;2023-02-07T15:38:56;3.30;67.20
8888;DHT22;4480;52.370;9.748;2023-02-07T15:41:23;3.30;68.60
8888;DHT22;4480;52.370;9.748;2023-02-07T15:43:56;3.20;69.40
8888;DHT22;4480;52.370;9.748;2023-02-07T15:46:23;3.10;69.60
8888;DHT22;4480;52.370;9.748;2023-02-07T15:48:53;3.10;69.90
8888;DHT22;4480;52.370;9.748;2023-02-07T15:51:22;3.00;70.60
8888;DHT22;4480;52.370;9.748;2023-02-07T15:53:52;2.90;70.40
8888;DHT22;4480;52.370;9.748;2023-02-07T15:56:20;2.90;70.10
8888;DHT22;4480;52.370;9.748;2023-02-07T15:58:47;2.80;70.80
8888;DHT22;4480;52.370;9.748;2023-02-07T16:01:16;2.70;71.00
8888;DHT22;4480;52.370;9.748;2023-02-07T16:03:47;2.70;71.30
8888;DHT22;4480;52.370;9.748;2023-02-07T16:06:19;2.60;70.90
8888;DHT22;4480;52.370;9.748;2023-02-07T16:08:47;2.60;70.60
8888;DHT22;4480;52.370;9.748;2023-02-07T16:11:34;2.50;71.00
8888;DHT22;4480;52.370;9.748;2023-02-07T16:14:03;2.40;71.30
8888;DHT22;4480;52.370;9.748;2023-02-07T16:16:37;2.40;71.40
8888;DHT22;4480;52.370;9.748;2023-02-07T16:19:07;2.30;71.50
8888;DHT22;4480;52.370;9.748;2023-02-07T16:21:35;2.20;71.80
8888;DHT22;4480;52.370;9.748;2023-02-07T16:24:05;2.20;72.10
8888;DHT22;4480;52.370;9.748;2023-02-07T16:26:32;2.10;72.30
8888;DHT22;4480;52.370;9.748;2023-02-07T16:29:03;2.10;73.10
8888;DHT22;4480;52.370;9.748;2023-02-07T16:31:31;2.00;73.40
8888;DHT22;4480;52.370;9.748;2023-02-07T16:33:58;1.90;74.10
8888;DHT22;4480;52.370;9.748;2023-02-07T16:36:24;1.90;74.90
8888;DHT22;4480;52.370;9.748;2023-02-07T16:38:53;1.80;76.00